createdAt,value
2023-01-24T00:01:32.501Z,14.10
2023-01-24T00:03:59.152Z,15.13
2023-01-24T00:06:25.972Z,14.73
2023-01-24T00:08:53.948Z,15.30
2023-01-24T00:11:21.471Z,13.82
2023-01-24T00:13:48.086Z,18.23
2023-01-24T00:16:22.065Z,17.67
2023-01-24T00:18:49.553Z,16.48
2023-01-24T00:21:21.542Z,16.50
2023-01-24T00:23:50.611Z,13.45
2023-01-24T00:26:18.162Z,17.33
2023-01-24T00:28:45.659Z,15.85
2023-01-24T00:31:12.225Z,13.95
2023-01-24T00:33:38.813Z,16.17
2023-01-24T00:36:06.363Z,15.35
2023-01-24T00:38:33.007Z,15.65
2023-01-24T00:40:59.807Z,15.05
2023-01-24T00:43:29.086Z,17.15
2023-01-24T00:45:56.241Z,13.70
2023-01-24T00:48:23.043Z,13.00
2023-01-24T00:50:49.773Z,15.30
2023-01-24T00:53:16.442Z,15.18
2023-01-24T00:55:45.105Z,12.18
2023-01-24T01:00:40.427Z,13.27
2023-01-24T01:03:10.750Z,15.00
2023-01-24T01:05:37.276Z,15.57
2023-01-24T01:08:03.857Z,14.23
2023-01-24T01:10:30.513Z,15.98
2023-01-24T01:12:58.018Z,15.63
2023-01-24T01:15:24.761Z,15.70
2023-01-24T01:17:51.283Z,14.38
2023-01-24T01:20:19.144Z,17.63
2023-01-24T01:22:45.651Z,16.42
2023-01-24T01:25:12.236Z,14.52
2023-01-24T01:27:39.211Z,15.13
2023-01-24T01:30:06.351Z,16.60
2023-01-24T01:32:32.989Z,14.73
2023-01-24T01:34:59.520Z,18.60
2023-01-24T01:37:28.782Z,17.23
2023-01-24T01:39:55.341Z,16.25
2023-01-24T01:42:22.012Z,13.68
2023-01-24T01:44:51.492Z,17.45
2023-01-24T01:47:34.983Z,17.77
2023-01-24T01:50:06.833Z,14.07
2023-01-24T01:52:38.117Z,16.30
2023-01-24T01:55:12.843Z,15.40
2023-01-24T02:00:16.300Z,13.18
2023-01-24T06:44:14.701Z,20.73
2023-01-24T06:46:41.546Z,16.42
2023-01-24T06:53:01.598Z,15.82
2023-01-24T06:55:28.676Z,18.70
2023-01-24T06:57:59.726Z,17.63
2023-01-24T07:00:26.563Z,15.93
2023-01-24T07:03:03.897Z,19.77
2023-01-24T07:05:32.228Z,18.23
2023-01-24T07:07:59.419Z,18.05
2023-01-24T07:10:26.433Z,18.73
2023-01-24T07:12:54.402Z,16.75
2023-01-24T07:15:21.294Z,16.45
2023-01-24T07:17:49.855Z,16.35
2023-01-24T07:20:17.969Z,17.00
2023-01-24T07:22:45.402Z,17.83
2023-01-24T07:25:28.492Z,16.65
2023-01-24T07:27:55.566Z,16.25
2023-01-24T07:30:22.481Z,15.57
2023-01-24T07:32:49.199Z,19.60
2023-01-24T07:35:16.747Z,17.58
2023-01-24T07:37:45.212Z,15.63
2023-01-24T07:40:12.661Z,18.58
2023-01-24T07:42:39.462Z,18.60
2023-01-24T07:45:07.045Z,20.98
2023-01-24T07:47:35.018Z,17.27
2023-01-24T07:50:01.829Z,17.30
2023-01-24T07:52:28.644Z,16.55
2023-01-24T07:54:55.629Z,15.80
2023-01-24T07:57:23.244Z,18.92
2023-01-24T07:59:50.327Z,19.27
2023-01-24T08:02:17.252Z,18.63
2023-01-24T08:04:44.630Z,16.85
2023-01-24T08:07:17.970Z,16.65
2023-01-24T08:09:46.228Z,16.20
2023-01-24T08:12:13.382Z,15.93
2023-01-24T08:14:40.682Z,17.98
2023-01-24T08:17:07.906Z,19.10
2023-01-24T08:19:54.782Z,16.42
2023-01-24T08:22:21.760Z,15.98
2023-01-24T08:24:48.796Z,18.88
2023-01-24T08:27:15.569Z,17.77
2023-01-24T08:29:42.382Z,17.00
2023-01-24T08:32:09.534Z,18.52
2023-01-24T08:34:36.573Z,17.15
2023-01-24T08:37:03.242Z,17.63
2023-01-24T08:39:30.980Z,17.35
2023-01-24T08:41:57.777Z,16.13
2023-01-24T08:44:24.569Z,19.27
2023-01-24T08:46:52.984Z,17.65
2023-01-24T08:49:21.111Z,15.77
2023-01-24T08:51:48.791Z,18.88
2023-01-24T08:54:16.289Z,17.80
2023-01-24T08:56:43.032Z,17.25
2023-01-24T08:59:10.002Z,18.77
2023-01-24T09:01:36.895Z,19.33
2023-01-24T09:04:05.885Z,16.45
2023-01-24T09:06:32.834Z,20.05
2023-01-24T09:09:00.604Z,18.20
2023-01-24T09:11:27.837Z,18.27
2023-01-24T09:13:55.145Z,18.42
2023-01-24T09:16:22.054Z,17.80
2023-01-24T09:18:50.533Z,19.13
2023-01-24T09:21:17.285Z,14.82
2023-01-24T09:23:44.317Z,17.05
2023-01-24T09:26:11.328Z,15.32
2023-01-24T09:28:41.266Z,12.82
2023-01-24T09:31:10.164Z,15.20
2023-01-24T09:33:39.334Z,16.45
2023-01-24T09:36:10.259Z,15.20
2023-01-24T09:38:37.377Z,14.70
2023-01-24T09:41:20.337Z,15.88
2023-01-24T09:43:53.490Z,12.20
2023-01-24T09:46:55.705Z,15.88
2023-01-24T09:49:46.138Z,13.60
2023-01-24T09:52:21.786Z,16.55
2023-01-24T09:54:57.399Z,16.65
2023-01-24T09:57:33.458Z,15.50
2023-01-24T10:00:14.008Z,16.08
2023-01-24T10:02:40.897Z,17.00
2023-01-24T10:05:14.552Z,18.25
2023-01-24T10:07:56.257Z,14.65
2023-01-24T10:10:46.295Z,16.85
2023-01-24T10:13:13.283Z,18.60
2023-01-24T10:15:49.066Z,16.88
2023-01-24T10:18:23.297Z,18.02
2023-01-24T10:21:09.185Z,19.15
2023-01-24T10:23:40.960Z,15.70
2023-01-24T10:26:20.073Z,19.45
2023-01-24T10:28:56.582Z,14.77
2023-01-24T10:31:36.023Z,17.77
2023-01-24T10:34:35.505Z,18.67
2023-01-24T10:37:11.773Z,14.80
2023-01-24T10:39:39.100Z,14.43
2023-01-24T10:42:29.990Z,14.25
2023-01-24T10:45:02.103Z,14.80
2023-01-24T10:48:00.846Z,15.63
2023-01-24T10:50:35.569Z,18.55
2023-01-24T10:53:29.402Z,12.07
2023-01-24T10:56:03.905Z,16.70
2023-01-24T10:58:39.437Z,16.17
2023-01-24T11:01:21.521Z,16.13
2023-01-24T11:03:50.773Z,19.45
2023-01-24T11:06:37.562Z,15.68
2023-01-24T11:09:16.577Z,17.23
2023-01-24T11:11:50.999Z,18.35
2023-01-24T11:14:21.945Z,14.63
2023-01-24T11:16:52.377Z,18.65
2023-01-24T11:19:43.286Z,16.25
2023-01-24T11:22:22.729Z,16.95
2023-01-24T11:24:55.360Z,19.10
2023-01-24T11:27:23.088Z,17.35
2023-01-24T11:30:08.794Z,17.65
2023-01-24T11:32:44.709Z,17.52
2023-01-24T11:35:25.948Z,18.13
2023-01-24T11:38:26.728Z,18.50
2023-01-24T11:41:03.521Z,18.80
2023-01-24T11:43:58.354Z,19.80
2023-01-24T11:46:35.831Z,23.25
2023-01-24T11:49:14.504Z,18.77
2023-01-24T11:52:05.252Z,17.33
2023-01-24T11:54:59.184Z,18.60
2023-01-24T11:57:41.389Z,17.50
2023-01-24T12:00:22.437Z,18.23
2023-01-24T12:03:28.138Z,22.40
2023-01-24T12:06:18.551Z,22.02
2023-01-24T12:09:18.234Z,18.88
2023-01-24T12:11:52.963Z,21.05
2023-01-24T12:14:30.929Z,16.73
2023-01-24T12:17:15.249Z,22.35
2023-01-24T12:20:24.717Z,21.88
2023-01-24T12:23:03.612Z,18.08
2023-01-24T12:25:40.050Z,23.45
2023-01-24T12:28:12.736Z,22.23
2023-01-24T12:30:46.289Z,23.88
2023-01-24T12:33:33.466Z,25.10
2023-01-24T12:36:22.404Z,21.60
2023-01-24T12:38:56.602Z,22.75
2023-01-24T12:41:39.978Z,23.77
2023-01-24T12:44:43.873Z,22.33
2023-01-24T12:47:33.985Z,25.38
2023-01-24T12:50:21.564Z,23.27
2023-01-24T12:53:02.087Z,23.30
2023-01-24T12:55:38.811Z,25.85
2023-01-24T12:58:35.854Z,28.77
2023-01-24T13:01:18.173Z,24.67
2023-01-24T13:04:21.246Z,22.38
2023-01-24T13:07:28.146Z,25.52
2023-01-24T13:10:14.287Z,23.00
2023-01-24T13:12:43.833Z,23.85
2023-01-24T13:15:25.518Z,22.88
2023-01-24T13:18:19.951Z,25.60
2023-01-24T13:21:08.307Z,27.45
2023-01-24T13:24:04.058Z,23.52
2023-01-24T13:27:01.390Z,24.60
2023-01-24T13:29:41.869Z,25.38
2023-01-24T13:32:18.974Z,21.35
2023-01-24T13:34:55.261Z,23.60
2023-01-24T13:37:26.974Z,21.80
2023-01-24T13:40:12.970Z,22.90
2023-01-24T13:42:40.901Z,22.88
2023-01-24T13:45:40.832Z,27.30
2023-01-24T13:48:44.228Z,24.85
2023-01-24T13:51:23.230Z,23.17
2023-01-24T13:54:17.011Z,25.20
2023-01-24T13:57:21.497Z,24.17
2023-01-24T14:00:22.724Z,26.13
2023-01-24T14:02:49.687Z,21.38
2023-01-24T14:05:43.209Z,21.73
2023-01-24T14:08:09.960Z,24.95
2023-01-24T14:10:39.842Z,26.70
2023-01-24T14:13:45.419Z,24.38
2023-01-24T14:16:25.290Z,25.15
2023-01-24T14:18:59.991Z,21.77
2023-01-24T14:21:45.577Z,22.02
2023-01-24T14:24:55.500Z,22.85
2023-01-24T14:27:32.411Z,24.60
2023-01-24T14:30:09.845Z,24.17
2023-01-24T14:32:45.925Z,24.08
2023-01-24T14:35:21.462Z,26.42
2023-01-24T14:37:50.354Z,26.48
2023-01-24T14:42:58.753Z,23.92
2023-01-24T14:45:28.442Z,22.65
2023-01-24T14:47:57.261Z,23.00
2023-01-24T14:50:34.448Z,22.48
2023-01-24T14:53:02.479Z,21.27
2023-01-24T14:55:43.496Z,22.70
2023-01-24T14:58:21.225Z,22.20
2023-01-24T15:00:50.427Z,20.70
2023-01-24T15:03:26.307Z,20.02
2023-01-24T15:05:57.125Z,21.33
2023-01-24T15:08:26.305Z,20.45
2023-01-24T15:11:06.673Z,20.30
2023-01-24T15:13:44.614Z,18.90
2023-01-24T15:16:24.561Z,20.92
2023-01-24T15:18:55.595Z,20.70
2023-01-24T15:21:35.983Z,18.33
2023-01-24T15:24:04.305Z,19.27
2023-01-24T15:26:34.179Z,23.38
2023-01-24T15:29:39.365Z,22.27
2023-01-24T15:32:35.033Z,19.40
2023-01-24T15:35:26.892Z,20.58
2023-01-24T15:38:17.092Z,19.48
2023-01-24T15:40:59.712Z,21.15
2023-01-24T15:43:47.271Z,18.30
2023-01-24T15:46:37.365Z,17.83
2023-01-24T15:49:39.752Z,19.80
2023-01-24T15:52:10.369Z,19.60
2023-01-24T15:54:43.083Z,18.88
2023-01-24T15:57:27.747Z,18.20
2023-01-24T16:00:02.331Z,20.52
2023-01-24T16:07:24.505Z,25.40
2023-01-24T16:09:54.375Z,18.02
2023-01-24T16:12:22.596Z,21.23
2023-01-24T16:15:07.007Z,18.52
2023-01-24T16:17:34.929Z,22.48
2023-01-24T16:20:02.269Z,18.45
2023-01-24T16:22:30.081Z,17.48
2023-01-24T16:24:56.877Z,21.60
2023-01-24T16:27:23.587Z,18.58
2023-01-24T16:29:51.499Z,21.38
2023-01-24T16:32:24.307Z,20.08
2023-01-24T16:34:51.301Z,21.65
2023-01-24T16:37:21.945Z,21.00
2023-01-24T16:39:49.556Z,21.13
2023-01-24T16:42:19.047Z,22.15
2023-01-24T16:45:01.645Z,19.08
2023-01-24T16:47:29.107Z,20.63
2023-01-24T16:49:57.210Z,21.20
2023-01-24T16:52:26.096Z,24.23
2023-01-24T16:54:53.153Z,20.77
2023-01-24T16:57:20.608Z,22.80
2023-01-24T16:59:47.774Z,22.33
2023-01-24T17:02:15.449Z,21.55
2023-01-24T17:04:42.404Z,22.45
2023-01-24T17:07:09.239Z,22.58
2023-01-24T17:09:36.176Z,23.90
2023-01-24T17:12:13.685Z,20.92
2023-01-24T17:14:41.795Z,23.38
2023-01-24T17:17:09.304Z,21.80
2023-01-24T17:19:38.884Z,27.27
2023-01-24T17:22:06.946Z,20.25
2023-01-24T17:24:34.636Z,23.73
2023-01-24T17:27:01.751Z,21.42
2023-01-24T17:29:29.136Z,22.40
2023-01-24T17:31:57.389Z,21.52
2023-01-24T17:34:24.761Z,24.95
2023-01-24T17:36:52.652Z,22.77
2023-01-24T17:39:20.018Z,24.17
2023-01-24T17:41:46.972Z,24.75
2023-01-24T17:44:17.469Z,20.27
2023-01-24T17:46:45.068Z,22.52
2023-01-24T17:49:12.126Z,22.67
2023-01-24T17:51:39.069Z,25.85
2023-01-24T17:54:11.416Z,20.45
2023-01-24T17:56:39.207Z,21.48
2023-01-24T17:59:06.094Z,24.35
2023-01-24T18:01:33.141Z,23.50
2023-01-24T18:04:01.886Z,20.65
2023-01-24T18:06:28.707Z,24.27
2023-01-24T18:08:55.248Z,21.30
2023-01-24T18:11:22.287Z,22.17
2023-01-24T18:13:49.259Z,22.30
2023-01-24T18:16:19.205Z,23.92
2023-01-24T18:18:48.983Z,25.35
2023-01-24T18:21:20.041Z,24.35
2023-01-24T18:23:51.638Z,20.60
2023-01-24T18:26:18.392Z,20.60
2023-01-24T18:28:45.179Z,24.42
2023-01-24T18:31:12.802Z,21.80
2023-01-24T18:33:40.404Z,23.95
2023-01-24T18:36:12.976Z,24.40
2023-01-24T18:38:40.961Z,23.88
2023-01-24T18:41:07.752Z,24.30
2023-01-24T18:43:37.408Z,21.15
2023-01-24T18:46:05.976Z,24.08
2023-01-24T18:51:09.380Z,22.17
2023-01-24T18:53:36.011Z,22.05
2023-01-24T18:56:05.286Z,24.38
2023-01-24T18:58:34.039Z,26.75
2023-01-24T19:01:08.287Z,25.58
2023-01-24T19:03:35.352Z,24.45
2023-01-24T19:06:02.467Z,22.73
2023-01-24T19:08:29.425Z,29.20
2023-01-24T19:10:56.584Z,29.25
2023-01-24T19:13:23.456Z,28.02
2023-01-24T19:15:51.953Z,25.83
2023-01-24T19:18:20.427Z,23.45
2023-01-24T19:23:14.624Z,27.70
2023-01-24T19:26:02.387Z,25.40
2023-01-24T19:29:00.410Z,28.23
2023-01-24T19:31:28.752Z,26.88
2023-01-24T19:33:55.991Z,26.80
2023-01-24T19:36:24.312Z,23.08
2023-01-24T19:38:56.913Z,25.48
2023-01-24T19:41:25.717Z,26.77
2023-01-24T19:44:18.538Z,25.88
2023-01-24T19:46:39.584Z,24.25
2023-01-24T19:49:06.134Z,26.83
2023-01-24T19:51:32.853Z,28.92
2023-01-24T19:53:59.301Z,26.10
2023-01-24T19:56:25.907Z,25.75
2023-01-24T19:58:55.364Z,27.10
2023-01-24T20:01:22.209Z,25.60
2023-01-24T20:03:49.211Z,30.60
2023-01-24T20:06:20.958Z,29.42
2023-01-24T20:08:53.025Z,27.33
2023-01-24T20:11:21.455Z,28.10
2023-01-24T20:13:48.147Z,27.33
2023-01-24T20:16:26.516Z,24.23
2023-01-24T20:18:58.227Z,22.65
2023-01-24T20:21:27.636Z,25.20
2023-01-24T20:23:56.166Z,32.03
2023-01-24T20:26:22.944Z,28.70
2023-01-24T20:28:50.050Z,28.10
2023-01-24T20:31:16.974Z,28.75
2023-01-24T20:33:43.989Z,29.20
2023-01-24T20:36:14.170Z,26.55
2023-01-24T20:38:41.510Z,27.70
2023-01-24T20:41:13.147Z,29.77
2023-01-24T20:43:40.994Z,28.02
2023-01-24T20:46:20.693Z,27.35
2023-01-24T20:48:49.537Z,29.02
2023-01-24T20:51:17.305Z,28.00
2023-01-24T21:28:12.339Z,28.73
2023-01-24T21:30:39.136Z,30.75
2023-01-24T21:33:08.019Z,33.78
2023-01-24T21:35:34.812Z,30.83
2023-01-24T21:38:01.329Z,29.63
2023-01-24T21:40:27.897Z,31.48
2023-01-24T21:42:55.634Z,32.92
2023-01-24T21:45:22.493Z,35.38
2023-01-24T21:47:49.148Z,31.73
2023-01-24T21:50:16.144Z,30.92
2023-01-24T21:52:44.537Z,32.42
2023-01-24T21:55:12.484Z,28.38
2023-01-24T21:57:58.200Z,35.63
2023-01-24T22:00:24.927Z,30.95
2023-01-24T22:03:11.591Z,33.58
2023-01-24T22:05:38.254Z,32.00
2023-01-24T22:08:05.255Z,31.42
2023-01-24T22:10:31.910Z,30.77
2023-01-24T22:12:58.718Z,33.00
2023-01-24T22:15:25.999Z,33.40
2023-01-24T22:17:53.083Z,34.55
2023-01-24T22:20:19.790Z,37.33
2023-01-24T22:22:56.656Z,34.45
2023-01-24T22:25:49.959Z,33.40
2023-01-24T22:28:19.415Z,32.03
2023-01-24T22:30:47.145Z,34.45
2023-01-24T22:33:13.961Z,33.33
2023-01-24T22:35:41.395Z,33.13
2023-01-24T22:38:07.934Z,33.83
2023-01-24T22:40:34.760Z,31.75
2023-01-24T22:43:01.329Z,37.60
2023-01-24T22:45:29.466Z,32.40
2023-01-24T22:47:56.682Z,33.35
2023-01-24T22:50:23.277Z,30.52
2023-01-24T22:52:50.223Z,35.22
2023-01-24T22:55:17.828Z,33.22
2023-01-24T22:57:44.264Z,33.53
2023-01-24T23:00:12.520Z,34.35
2023-01-24T23:02:39.455Z,34.17
2023-01-24T23:05:06.853Z,37.30
2023-01-24T23:07:33.951Z,33.15
2023-01-24T23:10:00.489Z,36.45
2023-01-24T23:12:45.651Z,37.03
2023-01-24T23:15:31.702Z,34.15
2023-01-24T23:17:58.201Z,32.45
2023-01-24T23:20:43.446Z,34.05
2023-01-24T23:23:09.928Z,30.73
2023-01-24T23:25:36.519Z,36.05
2023-01-24T23:28:03.167Z,33.78
2023-01-24T23:30:49.929Z,33.45
2023-01-24T23:33:40.554Z,32.30
2023-01-24T23:36:09.423Z,32.22
2023-01-24T23:38:35.930Z,33.72
2023-01-24T23:41:07.074Z,37.35
2023-01-24T23:43:33.598Z,32.70
2023-01-24T23:46:00.508Z,32.28
2023-01-24T23:48:27.334Z,35.33
2023-01-24T23:50:58.777Z,32.35
2023-01-24T23:53:25.897Z,37.00
2023-01-24T23:55:52.449Z,31.50
2023-01-24T23:58:18.892Z,31.20
